Time;durP1;ratioP1;P1;durP2;ratioP2;P2;SDS_P1;SDS_P2;PMS_P1;PMS_P2;Temp;Humidity;BMP_temperature;BMP_pressure;BME280_temperature;BME280_humidity;BME280_pressure;Samples;Min_cycle;Max_cycle;Signal;HPM_P1;HPM_P2
2023/03/10 00:01:12;;;;;;;22.97;11.17;;;;;;;;;;5073436;28;20202;-69
2023/03/10 00:03:38;;;;;;;28.27;11.40;;;;;;;;;;5073528;28;20162;-70
2023/03/10 00:06:05;;;;;;;24.53;11.30;;;;;;;;;;5073799;28;20184;-70
2023/03/10 00:08:31;;;;;;;24.43;12.60;;;;;;;;;;5073350;28;20177;-70
2023/03/10 00:10:57;;;;;;;23.00;12.80;;;;;;;;;;5072905;28;20193;-69
2023/03/10 00:13:23;;;;;;;22.73;12.00;;;;;;;;;;5073651;28;20252;-69
2023/03/10 00:15:49;;;;;;;20.90;9.27;;;;;;;;;;5055082;28;20209;-69
2023/03/10 00:18:14;;;;;;;16.57;7.70;;;;;;;;;;5055182;28;20742;-70
2023/03/10 00:20:40;;;;;;;12.13;5.37;;;;;;;;;;5073743;28;20541;-66
2023/03/10 00:23:06;;;;;;;15.10;5.30;;;;;;;;;;5072653;28;20224;-65
2023/03/10 00:25:32;;;;;;;11.73;3.63;;;;;;;;;;5072932;28;20184;-70
2023/03/10 00:27:58;;;;;;;7.43;3.80;;;;;;;;;;5072923;28;20227;-69
2023/03/10 00:30:24;;;;;;;9.40;3.33;;;;;;;;;;5072946;28;20703;-69
2023/03/10 00:32:50;;;;;;;8.83;3.83;;;;;;;;;;5054923;28;20292;-69
2023/03/10 00:35:16;;;;;;;7.80;3.57;;;;;;;;;;5072969;28;20204;-70
2023/03/10 00:37:42;;;;;;;5.43;2.40;;;;;;;;;;5073207;28;20541;-70
2023/03/10 00:40:13;;;;;;;6.37;2.13;;;;;;;;;;5074022;28;20177;-69
2023/03/10 00:42:39;;;;;;;5.43;2.73;;;;;;;;;;5073037;28;20651;-71
2023/03/10 00:45:05;;;;;;;4.33;2.60;;;;;;;;;;5072898;28;20248;-71
2023/03/10 00:47:31;;;;;;;4.50;2.10;;;;;;;;;;5072923;28;20178;-70
2023/03/10 00:49:57;;;;;;;4.13;2.00;;;;;;;;;;5073338;28;20174;-70
2023/03/10 00:52:23;;;;;;;1.90;1.73;;;;;;;;;;5055474;28;20591;-70
2023/03/10 00:54:50;;;;;;;2.13;1.70;;;;;;;;;;5073815;28;20174;-71
2023/03/10 00:57:16;;;;;;;4.03;1.60;;;;;;;;;;5073734;28;20543;-69
2023/03/10 00:59:42;;;;;;;3.00;1.50;;;;;;;;;;5073975;28;20204;-71
2023/03/10 01:02:08;;;;;;;3.90;1.43;;;;;;;;;;5072813;28;20209;-69
2023/03/10 01:04:34;;;;;;;2.97;1.63;;;;;;;;;;5073046;28;20184;-71
2023/03/10 01:07:00;;;;;;;1.33;1.23;;;;;;;;;;5074761;28;20177;-71
2023/03/10 01:09:26;;;;;;;3.23;1.60;;;;;;;;;;5076514;28;20207;-71
2023/03/10 01:11:52;;;;;;;3.20;1.60;;;;;;;;;;5076496;28;20210;-71
2023/03/10 01:14:18;;;;;;;2.70;1.40;;;;;;;;;;5077258;28;20174;-70
2023/03/10 01:16:44;;;;;;;2.53;1.70;;;;;;;;;;5079057;28;20166;-70
2023/03/10 01:19:10;;;;;;;1.97;1.30;;;;;;;;;;5059031;28;20268;-70
2023/03/10 01:21:37;;;;;;;1.67;1.53;;;;;;;;;;5077971;28;20213;-69
2023/03/10 01:24:03;;;;;;;2.93;1.80;;;;;;;;;;5075749;28;20601;-69
2023/03/10 01:26:29;;;;;;;2.47;1.80;;;;;;;;;;5076245;28;20584;-69
2023/03/10 01:28:55;;;;;;;2.17;1.80;;;;;;;;;;5075855;28;20200;-69
2023/03/10 01:31:21;;;;;;;4.07;1.77;;;;;;;;;;5075431;28;20217;-68
2023/03/10 01:33:47;;;;;;;5.10;1.90;;;;;;;;;;5075557;28;20178;-68
2023/03/10 01:36:15;;;;;;;1.83;1.60;;;;;;;;;;5075576;28;20647;-69
2023/03/10 01:38:41;;;;;;;3.80;1.60;;;;;;;;;;5057326;28;20239;-67
2023/03/10 01:41:08;;;;;;;3.00;1.70;;;;;;;;;;5075366;28;20182;-69
2023/03/10 01:43:41;;;;;;;4.37;1.90;;;;;;;;;;5075537;28;20276;-68
2023/03/10 01:46:40;;;;;;;4.40;2.03;;;;;;;;;;5075735;28;20173;-70
2023/03/10 01:49:11;;;;;;;4.40;2.40;;;;;;;;;;5031544;28;20735;-70
2023/03/10 01:51:39;;;;;;;4.60;2.80;;;;;;;;;;5075624;28;20205;-69
2023/03/10 01:54:06;;;;;;;3.00;2.70;;;;;;;;;;5075314;28;20174;-69
2023/03/10 01:56:32;;;;;;;4.23;3.17;;;;;;;;;;5075080;28;20662;-69
2023/03/10 01:58:58;;;;;;;4.97;3.53;;;;;;;;;;5075135;28;20181;-69
2023/03/10 02:01:25;;;;;;;5.47;3.37;;;;;;;;;;5074999;28;20198;-68
2023/03/10 02:03:59;;;;;;;4.97;3.20;;;;;;;;;;5075267;28;20663;-68
2023/03/10 02:06:25;;;;;;;3.83;3.53;;;;;;;;;;5074953;28;20651;-69
2023/03/10 02:08:54;;;;;;;3.70;3.30;;;;;;;;;;5074900;28;20609;-69
2023/03/10 02:11:20;;;;;;;5.03;3.80;;;;;;;;;;5074829;28;20266;-69
2023/03/10 02:13:46;;;;;;;4.80;3.73;;;;;;;;;;5074885;28;20244;-70
2023/03/10 02:16:12;;;;;;;7.67;4.10;;;;;;;;;;5074790;28;20651;-69
2023/03/10 02:18:38;;;;;;;5.80;3.80;;;;;;;;;;5056416;28;20205;-69
2023/03/10 02:21:23;;;;;;;4.23;3.83;;;;;;;;;;5074578;28;20635;-70
2023/03/10 02:23:56;;;;;;;3.50;3.20;;;;;;;;;;5074560;28;20189;-70
2023/03/10 02:26:40;;;;;;;3.90;3.60;;;;;;;;;;5056756;28;20280;-69
2023/03/10 02:29:08;;;;;;;6.87;3.70;;;;;;;;;;5074443;28;20174;-70
2023/03/10 02:31:35;;;;;;;4.13;3.70;;;;;;;;;;5074386;28;20255;-70
2023/03/10 02:34:01;;;;;;;5.80;3.77;;;;;;;;;;5074255;28;20179;-70
2023/03/10 02:36:27;;;;;;;4.27;3.87;;;;;;;;;;5074247;28;20174;-70
2023/03/10 02:38:53;;;;;;;3.70;3.40;;;;;;;;;;5074291;28;20181;-70
2023/03/10 02:41:21;;;;;;;4.20;3.80;;;;;;;;;;5074724;28;20200;-70
2023/03/10 02:43:48;;;;;;;4.93;4.33;;;;;;;;;;5056254;28;20186;-69
2023/03/10 02:46:14;;;;;;;7.23;3.97;;;;;;;;;;5074064;28;20234;-70
2023/03/10 02:48:40;;;;;;;5.57;4.33;;;;;;;;;;5074154;28;20238;-69
2023/03/10 02:51:07;;;;;;;4.83;4.20;;;;;;;;;;5056004;28;20296;-69
2023/03/10 02:53:33;;;;;;;6.20;4.13;;;;;;;;;;5074196;28;20544;-69
2023/03/10 02:55:59;;;;;;;7.67;4.20;;;;;;;;;;5074071;28;20182;-69
2023/03/10 02:58:26;;;;;;;6.57;4.20;;;;;;;;;;5073842;28;20170;-69
2023/03/10 03:00:52;;;;;;;7.63;4.50;;;;;;;;;;5073711;28;20635;-68
2023/03/10 03:03:19;;;;;;;4.73;4.17;;;;;;;;;;5055781;28;20667;-69
2023/03/10 03:05:45;;;;;;;4.37;3.93;;;;;;;;;;5073732;28;20184;-70
2023/03/10 03:08:11;;;;;;;4.93;3.77;;;;;;;;;;5073629;28;20227;-69
2023/03/10 03:10:38;;;;;;;4.53;4.00;;;;;;;;;;5074133;28;20277;-69
2023/03/10 03:13:04;;;;;;;5.07;3.60;;;;;;;;;;5073582;28;20247;-70
2023/03/10 03:15:31;;;;;;;6.13;3.73;;;;;;;;;;5073856;28;20196;-67
2023/03/10 03:18:00;;;;;;;8.20;3.77;;;;;;;;;;5073577;28;20200;-69
2023/03/10 03:20:26;;;;;;;5.70;4.00;;;;;;;;;;5073546;28;20174;-69
2023/03/10 03:22:53;;;;;;;7.23;4.37;;;;;;;;;;5055326;28;20209;-69
2023/03/10 03:25:19;;;;;;;8.20;3.70;;;;;;;;;;5055617;28;20661;-69
2023/03/10 03:27:45;;;;;;;10.50;3.83;;;;;;;;;;5073360;28;20185;-69
2023/03/10 03:30:14;;;;;;;5.70;3.47;;;;;;;;;;5054851;28;20177;-69
2023/03/10 03:35:19;;;;;;;5.63;3.30;;;;;;;;;;5071454;28;20245;-67
2023/03/10 03:37:46;;;;;;;8.03;3.80;;;;;;;;;;5073404;28;20174;-68
2023/03/10 03:40:12;;;;;;;6.50;3.77;;;;;;;;;;5055562;28;20221;-68
2023/03/10 03:42:42;;;;;;;11.70;4.93;;;;;;;;;;5073524;28;20257;-68
2023/03/10 03:45:09;;;;;;;13.07;4.53;;;;;;;;;;5035807;28;20189;-67
2023/03/10 03:47:34;;;;;;;10.00;4.37;;;;;;;;;;5035714;28;20186;-67
2023/03/10 03:50:01;;;;;;;11.30;4.20;;;;;;;;;;5035706;28;20189;-68
2023/03/10 03:52:27;;;;;;;10.47;5.10;;;;;;;;;;5053315;28;20214;-68
2023/03/10 03:54:53;;;;;;;9.00;4.13;;;;;;;;;;5035625;28;20288;-68
2023/03/10 03:57:19;;;;;;;8.80;4.10;;;;;;;;;;5053910;28;20709;-68
2023/03/10 03:59:45;;;;;;;8.63;4.17;;;;;;;;;;5053501;28;20170;-67
2023/03/10 04:02:11;;;;;;;9.43;4.90;;;;;;;;;;5035645;28;20636;-68
2023/03/10 04:04:37;;;;;;;10.30;3.93;;;;;;;;;;5053465;28;20198;-68
2023/03/10 04:07:03;;;;;;;7.23;4.53;;;;;;;;;;5035708;28;20178;-68
2023/03/10 04:09:30;;;;;;;11.10;4.60;;;;;;;;;;5053943;28;20217;-68
2023/03/10 04:11:55;;;;;;;10.00;5.13;;;;;;;;;;5035834;28;20695;-68
2023/03/10 04:14:21;;;;;;;11.47;4.17;;;;;;;;;;5053566;28;20199;-68
2023/03/10 04:16:47;;;;;;;12.03;4.27;;;;;;;;;;5054126;28;20171;-68
2023/03/10 04:19:13;;;;;;;8.70;4.27;;;;;;;;;;5035542;28;20190;-68
2023/03/10 04:21:40;;;;;;;6.50;4.13;;;;;;;;;;5035473;28;20732;-68
2023/03/10 04:24:06;;;;;;;8.87;4.20;;;;;;;;;;5053581;28;20199;-68
2023/03/10 04:26:32;;;;;;;9.67;4.10;;;;;;;;;;5053425;28;20175;-68
2023/03/10 04:28:58;;;;;;;9.07;4.50;;;;;;;;;;5053409;28;20182;-68
2023/03/10 04:31:25;;;;;;;10.90;4.80;;;;;;;;;;5053391;28;20206;-68
2023/03/10 04:33:51;;;;;;;11.87;4.70;;;;;;;;;;5053306;28;20221;-68
2023/03/10 04:36:17;;;;;;;7.87;4.23;;;;;;;;;;5035685;28;20225;-68
2023/03/10 04:38:43;;;;;;;12.87;4.70;;;;;;;;;;5035342;28;20206;-68
2023/03/10 04:41:09;;;;;;;8.73;4.73;;;;;;;;;;5055780;28;20196;-68
2023/03/10 04:43:36;;;;;;;9.20;4.10;;;;;;;;;;5038870;28;20202;-68
2023/03/10 04:46:02;;;;;;;9.03;4.60;;;;;;;;;;5057606;28;20181;-68
2023/03/10 04:48:28;;;;;;;9.80;4.43;;;;;;;;;;5038856;28;20273;-68
2023/03/10 04:50:55;;;;;;;7.07;3.60;;;;;;;;;;5056724;28;20210;-68
2023/03/10 04:53:21;;;;;;;7.97;3.77;;;;;;;;;;5056992;28;20543;-68
2023/03/10 04:55:47;;;;;;;9.87;3.63;;;;;;;;;;5057584;28;20196;-68
2023/03/10 04:58:13;;;;;;;9.00;3.87;;;;;;;;;;5057110;28;20182;-68
2023/03/10 05:00:39;;;;;;;5.83;3.93;;;;;;;;;;5057117;28;20179;-68
2023/03/10 05:03:05;;;;;;;8.73;4.10;;;;;;;;;;5056536;28;20195;-68
2023/03/10 05:05:34;;;;;;;11.17;4.80;;;;;;;;;;5057409;28;20183;-68
2023/03/10 05:08:00;;;;;;;8.83;4.63;;;;;;;;;;5068500;28;20206;-68
2023/03/10 05:10:25;;;;;;;10.07;4.30;;;;;;;;;;5067616;28;20178;-68
2023/03/10 05:12:52;;;;;;;9.87;4.27;;;;;;;;;;5067870;28;20233;-68
2023/03/10 05:15:18;;;;;;;14.87;4.80;;;;;;;;;;5046451;28;20555;-68
2023/03/10 05:17:44;;;;;;;9.30;4.40;;;;;;;;;;5048166;28;20175;-68
2023/03/10 05:20:10;;;;;;;16.50;4.90;;;;;;;;;;5066138;28;20174;-68
2023/03/10 05:22:37;;;;;;;12.37;5.17;;;;;;;;;;5065548;28;20174;-68
2023/03/10 05:25:03;;;;;;;16.00;5.00;;;;;;;;;;5049443;28;20212;-68
2023/03/10 05:27:29;;;;;;;15.57;4.93;;;;;;;;;;5049823;28;20174;-68
2023/03/10 05:29:55;;;;;;;13.50;4.37;;;;;;;;;;5066614;28;20249;-69
2023/03/10 05:32:21;;;;;;;11.30;4.53;;;;;;;;;;5048789;28;20212;-69
2023/03/10 05:34:46;;;;;;;13.33;4.57;;;;;;;;;;5065265;28;20210;-69
2023/03/10 05:37:12;;;;;;;20.43;5.27;;;;;;;;;;5064554;28;20240;-69
2023/03/10 05:39:38;;;;;;;13.00;4.10;;;;;;;;;;5062839;28;20257;-69
2023/03/10 05:42:04;;;;;;;15.37;4.17;;;;;;;;;;5063056;28;20186;-69
2023/03/10 05:44:30;;;;;;;12.73;4.37;;;;;;;;;;5061704;28;20221;-69
2023/03/10 05:46:56;;;;;;;12.83;4.17;;;;;;;;;;5065537;28;20183;-69
2023/03/10 05:49:22;;;;;;;12.77;4.13;;;;;;;;;;5060633;28;20187;-69
2023/03/10 05:51:48;;;;;;;10.60;4.30;;;;;;;;;;5059686;28;20206;-68
2023/03/10 05:54:15;;;;;;;12.13;4.23;;;;;;;;;;5060271;28;20695;-68
2023/03/10 05:56:41;;;;;;;14.03;4.90;;;;;;;;;;5060836;28;20170;-69
2023/03/10 05:59:07;;;;;;;16.97;4.80;;;;;;;;;;5062113;28;20204;-68
2023/03/10 06:01:33;;;;;;;19.03;4.77;;;;;;;;;;5044203;28;20221;-68
2023/03/10 06:03:59;;;;;;;14.67;4.00;;;;;;;;;;5040923;28;20202;-68
2023/03/10 06:06:25;;;;;;;19.83;4.70;;;;;;;;;;5043457;28;20726;-68
2023/03/10 06:08:51;;;;;;;15.00;4.20;;;;;;;;;;5058802;28;20376;-68
2023/03/10 06:11:17;;;;;;;17.87;4.37;;;;;;;;;;5044509;28;20254;-69
2023/03/10 06:13:43;;;;;;;11.67;3.40;;;;;;;;;;5058769;28;20209;-68
2023/03/10 06:16:10;;;;;;;14.23;4.60;;;;;;;;;;5061954;28;20597;-68
2023/03/10 06:18:36;;;;;;;15.93;4.97;;;;;;;;;;5062858;28;20174;-68
2023/03/10 06:21:06;;;;;;;20.30;4.67;;;;;;;;;;5057010;28;20655;-68
2023/03/10 06:23:32;;;;;;;17.30;4.87;;;;;;;;;;5065542;28;20194;-68
2023/03/10 06:25:59;;;;;;;17.50;4.80;;;;;;;;;;5042109;28;20217;-69
2023/03/10 06:28:26;;;;;;;14.87;4.57;;;;;;;;;;5060505;28;20633;-69
2023/03/10 06:30:56;;;;;;;13.10;3.87;;;;;;;;;;5048679;28;20210;-69
2023/03/10 06:33:22;;;;;;;17.10;4.23;;;;;;;;;;5061517;28;20249;-68
2023/03/10 06:35:48;;;;;;;15.47;4.17;;;;;;;;;;5066416;28;20171;-68
2023/03/10 06:38:14;;;;;;;13.33;3.97;;;;;;;;;;5062631;28;20241;-68
2023/03/10 06:40:40;;;;;;;18.87;4.53;;;;;;;;;;5065202;28;20174;-68
2023/03/10 06:43:06;;;;;;;19.10;4.63;;;;;;;;;;5038171;28;20203;-68
2023/03/10 06:45:32;;;;;;;21.17;5.33;;;;;;;;;;5036760;28;20644;-68
2023/03/10 06:47:58;;;;;;;14.43;3.90;;;;;;;;;;5054467;28;20662;-67
2023/03/10 06:50:23;;;;;;;13.27;4.30;;;;;;;;;;5054458;28;20696;-68
2023/03/10 06:52:49;;;;;;;20.57;4.40;;;;;;;;;;5054285;28;20201;-68
2023/03/10 06:55:16;;;;;;;18.13;4.30;;;;;;;;;;5036500;28;20260;-67
2023/03/10 06:57:42;;;;;;;14.50;4.20;;;;;;;;;;5054847;28;20175;-67
2023/03/10 07:00:10;;;;;;;13.80;3.40;;;;;;;;;;5054572;28;20288;-67
2023/03/10 07:02:36;;;;;;;14.80;7.50;;;;;;;;;;5036146;28;20182;-67
2023/03/10 07:05:02;;;;;;;31.50;11.33;;;;;;;;;;5054102;28;20546;-67
2023/03/10 07:07:28;;;;;;;21.10;8.27;;;;;;;;;;5036212;28;20179;-67
2023/03/10 07:09:56;;;;;;;21.97;5.70;;;;;;;;;;5036467;28;20182;-68
2023/03/10 07:12:22;;;;;;;19.13;8.33;;;;;;;;;;5054015;28;20571;-67
2023/03/10 07:14:48;;;;;;;14.70;6.50;;;;;;;;;;5054319;28;20190;-68
2023/03/10 07:17:14;;;;;;;15.30;6.73;;;;;;;;;;5054775;28;20205;-68
2023/03/10 07:19:39;;;;;;;23.90;8.67;;;;;;;;;;5053787;28;20178;-67
2023/03/10 07:22:06;;;;;;;38.50;21.63;;;;;;;;;;5054139;28;20257;-68
2023/03/10 07:24:31;;;;;;;41.07;20.17;;;;;;;;;;5035916;28;20202;-68
2023/03/10 07:27:01;;;;;;;28.37;14.53;;;;;;;;;;5035945;28;20242;-68
2023/03/10 07:29:27;;;;;;;33.07;17.20;;;;;;;;;;5054211;28;20209;-68
2023/03/10 07:31:53;;;;;;;21.73;10.90;;;;;;;;;;5054057;28;20218;-68
2023/03/10 07:34:20;;;;;;;15.83;8.30;;;;;;;;;;5053780;28;20234;-69
2023/03/10 07:36:46;;;;;;;15.03;7.07;;;;;;;;;;5053471;28;20640;-70
2023/03/10 07:39:12;;;;;;;26.13;10.30;;;;;;;;;;5053547;28;20270;-68
2023/03/10 07:41:38;;;;;;;14.70;6.70;;;;;;;;;;5053848;28;20174;-67
2023/03/10 07:44:04;;;;;;;17.33;6.90;;;;;;;;;;5053938;28;20714;-68
2023/03/10 07:46:30;;;;;;;14.23;6.50;;;;;;;;;;5053594;28;20209;-68
2023/03/10 07:48:58;;;;;;;15.87;8.93;;;;;;;;;;5053434;28;20644;-67
2023/03/10 07:51:25;;;;;;;12.00;5.53;;;;;;;;;;5035272;28;20234;-67
2023/03/10 07:53:51;;;;;;;15.30;4.87;;;;;;;;;;5035447;28;20202;-68
2023/03/10 07:56:16;;;;;;;12.50;4.70;;;;;;;;;;5053531;28;20175;-68
2023/03/10 07:58:43;;;;;;;13.87;5.03;;;;;;;;;;5035320;28;20186;-68
2023/03/10 08:01:13;;;;;;;9.80;5.03;;;;;;;;;;5035377;28;20187;-68
2023/03/10 08:03:39;;;;;;;11.67;4.90;;;;;;;;;;5053005;28;20604;-68
2023/03/10 08:06:05;;;;;;;11.73;4.27;;;;;;;;;;5035529;28;20178;-68
2023/03/10 08:08:31;;;;;;;10.73;4.03;;;;;;;;;;5054582;28;20175;-68
2023/03/10 08:11:04;;;;;;;8.80;4.40;;;;;;;;;;5058016;28;20281;-68
2023/03/10 08:13:30;;;;;;;10.77;3.53;;;;;;;;;;5040133;28;20296;-68
2023/03/10 08:15:58;;;;;;;11.40;3.77;;;;;;;;;;5039212;28;20178;-68
2023/03/10 08:18:25;;;;;;;8.03;3.70;;;;;;;;;;5058565;28;20554;-68
2023/03/10 08:20:51;;;;;;;6.83;3.10;;;;;;;;;;5057389;28;20193;-69
2023/03/10 08:23:17;;;;;;;10.17;3.53;;;;;;;;;;5056839;28;20202;-68
2023/03/10 08:25:43;;;;;;;7.47;3.10;;;;;;;;;;5038916;28;20250;-68
2023/03/10 08:28:08;;;;;;;12.20;3.70;;;;;;;;;;5057130;28;20253;-68
2023/03/10 08:30:34;;;;;;;13.70;4.23;;;;;;;;;;5038946;28;20273;-69
2023/03/10 08:33:00;;;;;;;9.83;3.77;;;;;;;;;;5056247;28;20178;-69
2023/03/10 08:35:26;;;;;;;13.20;3.40;;;;;;;;;;5057057;28;20167;-68
2023/03/10 08:37:52;;;;;;;14.83;4.10;;;;;;;;;;5039231;28;20680;-68
2023/03/10 08:40:18;;;;;;;15.83;3.87;;;;;;;;;;5057232;28;20651;-68
2023/03/10 08:42:44;;;;;;;10.33;3.80;;;;;;;;;;5038660;28;20717;-68
2023/03/10 08:45:11;;;;;;;15.27;3.87;;;;;;;;;;5038693;28;20210;-68
2023/03/10 08:47:37;;;;;;;14.77;4.10;;;;;;;;;;5056189;28;20624;-68
2023/03/10 08:50:04;;;;;;;7.40;3.20;;;;;;;;;;5056105;28;20607;-68
2023/03/10 08:52:30;;;;;;;11.87;3.53;;;;;;;;;;5038152;28;20256;-68
2023/03/10 08:54:56;;;;;;;12.97;3.70;;;;;;;;;;5056042;28;20195;-68
2023/03/10 08:57:22;;;;;;;11.80;3.47;;;;;;;;;;5038207;28;20263;-68
2023/03/10 08:59:50;;;;;;;9.00;3.57;;;;;;;;;;5038262;28;20269;-68
2023/03/10 09:02:16;;;;;;;8.47;3.60;;;;;;;;;;5056390;28;20175;-69
2023/03/10 09:04:43;;;;;;;13.03;5.17;;;;;;;;;;5056229;28;20699;-68
2023/03/10 09:07:09;;;;;;;13.20;4.43;;;;;;;;;;5055937;28;20183;-68
2023/03/10 09:09:35;;;;;;;9.03;4.03;;;;;;;;;;5038077;28;20194;-68
2023/03/10 09:12:01;;;;;;;12.87;4.20;;;;;;;;;;5056124;28;20206;-68
2023/03/10 09:14:27;;;;;;;12.17;4.07;;;;;;;;;;5037851;28;20194;-68
2023/03/10 09:16:53;;;;;;;16.90;4.03;;;;;;;;;;5055718;28;20178;-68
2023/03/10 09:19:19;;;;;;;17.03;7.53;;;;;;;;;;5055699;28;20175;-68
2023/03/10 09:21:46;;;;;;;22.00;8.93;;;;;;;;;;5055951;28;20183;-68
2023/03/10 09:24:12;;;;;;;29.33;14.73;;;;;;;;;;5037823;28;20687;-69
2023/03/10 09:26:38;;;;;;;14.47;4.57;;;;;;;;;;5036597;28;20179;-68
2023/03/10 09:29:04;;;;;;;12.97;4.27;;;;;;;;;;5055787;28;20182;-69
2023/03/10 09:31:36;;;;;;;13.53;4.10;;;;;;;;;;5055479;28;20202;-68
2023/03/10 09:34:02;;;;;;;14.90;3.97;;;;;;;;;;5055364;28;20202;-68
2023/03/10 09:36:28;;;;;;;16.37;5.50;;;;;;;;;;5085221;22;20237;-67
2023/03/10 09:38:54;;;;;;;14.13;4.20;;;;;;;;;;5057589;28;20647;-67
2023/03/10 09:41:20;;;;;;;10.27;3.37;;;;;;;;;;5075781;28;20180;-67
2023/03/10 09:44:01;;;;;;;10.63;3.57;;;;;;;;;;5075676;28;20186;-67
2023/03/10 09:46:34;;;;;;;10.27;3.30;;;;;;;;;;5075694;28;20686;-67
2023/03/10 09:49:08;;;;;;;14.83;4.23;;;;;;;;;;5075602;28;20170;-67
2023/03/10 09:51:35;;;;;;;12.80;3.30;;;;;;;;;;5075378;28;20194;-68
2023/03/10 09:54:07;;;;;;;11.47;3.40;;;;;;;;;;5075083;28;20207;-67
2023/03/10 09:56:35;;;;;;;10.80;3.63;;;;;;;;;;5074961;28;20203;-68
2023/03/10 09:59:17;;;;;;;11.67;3.57;;;;;;;;;;5074889;28;20523;-66
2023/03/10 10:01:46;;;;;;;10.90;3.33;;;;;;;;;;5075200;28;20525;-68
2023/03/10 10:04:31;;;;;;;11.13;3.00;;;;;;;;;;5075214;28;20632;-67
2023/03/10 10:06:57;;;;;;;10.10;3.73;;;;;;;;;;5074736;28;20177;-68
2023/03/10 10:09:26;;;;;;;11.47;3.77;;;;;;;;;;5074719;28;20534;-68
2023/03/10 10:11:53;;;;;;;7.30;2.90;;;;;;;;;;5074614;28;20205;-66
2023/03/10 10:14:20;;;;;;;12.27;3.83;;;;;;;;;;5074603;28;20547;-67
2023/03/10 10:16:49;;;;;;;10.10;3.50;;;;;;;;;;5074935;28;20664;-65
2023/03/10 10:19:20;;;;;;;10.80;3.47;;;;;;;;;;5056718;28;20181;-65
2023/03/10 10:21:58;;;;;;;9.43;3.17;;;;;;;;;;5056483;28;20213;-65
2023/03/10 10:24:24;;;;;;;10.97;3.60;;;;;;;;;;5056534;28;20169;-66
2023/03/10 10:26:50;;;;;;;8.20;3.07;;;;;;;;;;5074468;28;20203;-67
2023/03/10 10:29:23;;;;;;;12.40;3.53;;;;;;;;;;5074852;28;20571;-67
2023/03/10 10:32:03;;;;;;;7.07;2.77;;;;;;;;;;5074313;28;20204;-67
2023/03/10 10:34:30;;;;;;;9.77;3.13;;;;;;;;;;5074322;28;20200;-67
2023/03/10 10:36:56;;;;;;;5.23;2.77;;;;;;;;;;5074348;28;20190;-67
2023/03/10 10:39:42;;;;;;;9.37;2.60;;;;;;;;;;5056034;28;20177;-67
2023/03/10 10:42:28;;;;;;;8.90;2.60;;;;;;;;;;5075269;28;20567;-67
2023/03/10 10:44:55;;;;;;;9.70;2.90;;;;;;;;;;5056220;28;20214;-68
2023/03/10 10:47:26;;;;;;;7.17;2.73;;;;;;;;;;5056246;28;20181;-68
2023/03/10 10:49:52;;;;;;;9.43;2.73;;;;;;;;;;5074061;28;20255;-68
2023/03/10 10:52:19;;;;;;;6.37;2.40;;;;;;;;;;5074048;28;20197;-68
2023/03/10 10:54:53;;;;;;;10.00;3.27;;;;;;;;;;5073971;28;20194;-67
2023/03/10 10:57:31;;;;;;;8.90;3.03;;;;;;;;;;5074169;28;20154;-67
2023/03/10 11:00:12;;;;;;;7.50;2.83;;;;;;;;;;5073948;28;20635;-68
2023/03/10 11:02:38;;;;;;;6.97;2.63;;;;;;;;;;5074146;28;20237;-65
2023/03/10 11:05:15;;;;;;;8.47;2.50;;;;;;;;;;5073652;28;20225;-65
2023/03/10 11:07:41;;;;;;;7.00;2.63;;;;;;;;;;5073723;28;20589;-65
2023/03/10 11:10:14;;;;;;;10.63;3.03;;;;;;;;;;5073624;28;20231;-65
2023/03/10 11:12:50;;;;;;;9.00;2.30;;;;;;;;;;5055944;28;20247;-68
2023/03/10 11:15:20;;;;;;;7.57;2.43;;;;;;;;;;5055902;28;20235;-68
2023/03/10 11:17:49;;;;;;;10.93;5.67;;;;;;;;;;5055665;28;20265;-66
2023/03/10 11:20:28;;;;;;;11.63;6.40;;;;;;;;;;5073676;28;20243;-66
2023/03/10 11:22:54;;;;;;;11.63;3.20;;;;;;;;;;5073455;28;20188;-67
2023/03/10 11:25:21;;;;;;;5.23;2.27;;;;;;;;;;5055309;28;20198;-68
2023/03/10 11:27:55;;;;;;;6.10;2.53;;;;;;;;;;5055627;28;20560;-67
2023/03/10 11:30:41;;;;;;;5.33;2.60;;;;;;;;;;5073608;28;20215;-66
2023/03/10 11:33:16;;;;;;;9.50;3.70;;;;;;;;;;5073323;28;20178;-66
2023/03/10 11:35:46;;;;;;;9.57;2.57;;;;;;;;;;5073482;28;20632;-66
2023/03/10 11:38:23;;;;;;;5.90;2.83;;;;;;;;;;5073346;28;20168;-66
2023/03/10 11:40:55;;;;;;;6.17;2.70;;;;;;;;;;5073690;28;20244;-66
2023/03/10 11:43:23;;;;;;;6.20;2.60;;;;;;;;;;5055398;28;20181;-66
2023/03/10 11:45:53;;;;;;;5.27;2.00;;;;;;;;;;5073370;28;20272;-66
2023/03/10 11:48:29;;;;;;;11.70;2.70;;;;;;;;;;5073916;28;20201;-68
2023/03/10 11:50:59;;;;;;;8.13;2.80;;;;;;;;;;5054580;28;20258;-68
2023/03/10 11:53:40;;;;;;;5.93;2.60;;;;;;;;;;5073374;28;20620;-69
2023/03/10 11:56:08;;;;;;;8.57;2.77;;;;;;;;;;5073455;28;20193;-68
2023/03/10 11:58:49;;;;;;;8.90;2.07;;;;;;;;;;5073117;28;20174;-68
2023/03/10 12:01:18;;;;;;;9.43;2.67;;;;;;;;;;5073557;28;20213;-68
2023/03/10 12:03:58;;;;;;;6.53;2.80;;;;;;;;;;5073125;28;20587;-68
2023/03/10 12:06:31;;;;;;;7.77;3.00;;;;;;;;;;5073089;28;20697;-69
2023/03/10 12:08:58;;;;;;;5.27;1.83;;;;;;;;;;5073589;28;20154;-69
2023/03/10 12:11:26;;;;;;;3.47;1.83;;;;;;;;;;5055049;28;20212;-69
2023/03/10 12:13:55;;;;;;;6.23;2.17;;;;;;;;;;5073691;28;20224;-69
2023/03/10 12:16:23;;;;;;;4.03;1.97;;;;;;;;;;5055145;28;20206;-69
2023/03/10 12:18:49;;;;;;;8.03;2.40;;;;;;;;;;5073130;28;20174;-69
2023/03/10 12:21:15;;;;;;;7.53;2.10;;;;;;;;;;5072924;28;20551;-68
2023/03/10 12:23:42;;;;;;;8.57;2.70;;;;;;;;;;5054767;28;20228;-68
2023/03/10 12:26:08;;;;;;;6.77;2.63;;;;;;;;;;5054743;28;20202;-69
2023/03/10 12:28:34;;;;;;;7.40;4.03;;;;;;;;;;5072791;28;20711;-68
2023/03/10 12:31:02;;;;;;;7.47;2.93;;;;;;;;;;5072698;28;20233;-68
2023/03/10 12:33:36;;;;;;;7.80;2.20;;;;;;;;;;5073309;28;20178;-68
2023/03/10 12:36:21;;;;;;;3.97;1.90;;;;;;;;;;5054656;28;20221;-67
2023/03/10 12:38:56;;;;;;;5.13;2.20;;;;;;;;;;5072828;28;20529;-68
2023/03/10 12:41:25;;;;;;;5.33;2.03;;;;;;;;;;5073154;28;20173;-69
2023/03/10 12:44:02;;;;;;;5.13;2.63;;;;;;;;;;5072904;28;20214;-68
2023/03/10 12:46:42;;;;;;;6.90;2.47;;;;;;;;;;5054544;28;20292;-68
2023/03/10 12:49:14;;;;;;;8.87;2.93;;;;;;;;;;5073079;28;20174;-66
2023/03/10 12:51:42;;;;;;;6.10;2.37;;;;;;;;;;5054985;28;20587;-67
2023/03/10 12:54:31;;;;;;;8.23;3.53;;;;;;;;;;5073963;28;20216;-65
2023/03/10 12:57:12;;;;;;;14.23;4.40;;;;;;;;;;5056887;28;20544;-68
2023/03/10 12:59:43;;;;;;;9.87;3.10;;;;;;;;;;5056084;28;20261;-68
2023/03/10 13:02:22;;;;;;;6.03;2.70;;;;;;;;;;5076494;28;20174;-68
2023/03/10 13:04:49;;;;;;;6.50;2.17;;;;;;;;;;5058338;28;20207;-68
2023/03/10 13:07:16;;;;;;;8.10;2.80;;;;;;;;;;5076159;28;20174;-67
2023/03/10 13:09:45;;;;;;;6.20;3.63;;;;;;;;;;5075927;28;20262;-66
2023/03/10 13:12:18;;;;;;;10.80;3.23;;;;;;;;;;5075918;28;20576;-67
2023/03/10 13:14:44;;;;;;;10.37;4.40;;;;;;;;;;5075860;28;20201;-67
2023/03/10 13:17:30;;;;;;;6.70;3.10;;;;;;;;;;5075861;28;20236;-67
2023/03/10 13:20:04;;;;;;;5.10;3.17;;;;;;;;;;5057739;28;20201;-67
2023/03/10 13:22:31;;;;;;;7.00;3.70;;;;;;;;;;5075872;28;20173;-68
2023/03/10 13:24:58;;;;;;;6.70;2.70;;;;;;;;;;5075645;28;20200;-66
2023/03/10 13:27:27;;;;;;;3.63;2.97;;;;;;;;;;5076018;28;20181;-67
2023/03/10 13:29:55;;;;;;;6.73;2.53;;;;;;;;;;5075777;28;20212;-65
2023/03/10 13:32:21;;;;;;;5.57;2.43;;;;;;;;;;5057591;28;20206;-68
2023/03/10 13:34:47;;;;;;;4.03;2.00;;;;;;;;;;5057375;28;20198;-69
2023/03/10 13:37:13;;;;;;;3.67;2.10;;;;;;;;;;5057683;28;20611;-68
2023/03/10 13:39:40;;;;;;;4.80;2.40;;;;;;;;;;5075814;28;20205;-69
2023/03/10 13:42:18;;;;;;;3.00;1.80;;;;;;;;;;5057811;28;20200;-69
2023/03/10 13:44:46;;;;;;;4.20;2.20;;;;;;;;;;5057441;28;20293;-69
2023/03/10 13:47:20;;;;;;;4.43;2.67;;;;;;;;;;5075313;28;20268;-67
2023/03/10 13:49:47;;;;;;;4.57;2.27;;;;;;;;;;5075317;28;20257;-68
2023/03/10 13:52:14;;;;;;;9.13;5.93;;;;;;;;;;5075165;28;20203;-69
2023/03/10 13:54:41;;;;;;;3.83;2.47;;;;;;;;;;5057273;28;20587;-67
2023/03/10 13:57:22;;;;;;;5.60;3.07;;;;;;;;;;5057260;28;20201;-70
2023/03/10 13:59:49;;;;;;;4.10;3.03;;;;;;;;;;5075250;28;20166;-69
2023/03/10 14:02:19;;;;;;;4.83;3.20;;;;;;;;;;5075032;28;20231;-69
2023/03/10 14:04:52;;;;;;;3.63;3.27;;;;;;;;;;5075526;28;20202;-68
2023/03/10 14:07:23;;;;;;;4.97;3.30;;;;;;;;;;5057042;28;20663;-68
2023/03/10 14:10:09;;;;;;;4.07;3.00;;;;;;;;;;5057140;28;20276;-69
2023/03/10 14:12:39;;;;;;;3.23;2.87;;;;;;;;;;5074192;28;20323;-69
2023/03/10 14:15:14;;;;;;;4.53;3.40;;;;;;;;;;5056988;28;20659;-68
2023/03/10 14:17:41;;;;;;;4.13;2.73;;;;;;;;;;5074893;28;20173;-69
2023/03/10 14:20:08;;;;;;;4.07;2.63;;;;;;;;;;5074814;28;20173;-69
2023/03/10 14:22:36;;;;;;;3.83;2.70;;;;;;;;;;5056854;28;20178;-68
2023/03/10 14:25:06;;;;;;;10.43;7.67;;;;;;;;;;5056525;28;20212;-70
2023/03/10 14:27:33;;;;;;;3.50;2.80;;;;;;;;;;5056595;28;20217;-71
2023/03/10 14:30:01;;;;;;;6.73;4.57;;;;;;;;;;5075070;28;20239;-68
2023/03/10 14:32:27;;;;;;;2.20;2.07;;;;;;;;;;5074623;28;20563;-71
2023/03/10 14:34:53;;;;;;;2.83;2.53;;;;;;;;;;5074548;28;20596;-69
2023/03/10 14:37:19;;;;;;;2.37;2.17;;;;;;;;;;5057423;28;20178;-69
2023/03/10 14:39:45;;;;;;;3.87;1.77;;;;;;;;;;5056798;28;20188;-71
2023/03/10 14:42:17;;;;;;;2.33;2.13;;;;;;;;;;5056912;28;20688;-67
2023/03/10 14:44:43;;;;;;;2.00;1.90;;;;;;;;;;5057007;28;20255;-69